Weather at Horsham Airport

Public forecast

Using degrees Celsius for public forecast. Weather courtesy of forecast.io.

Closest aviation weather report (METAR) to Horsham Airport

Closest report is Avalon Airport, 137.0 nm (253.7 km) SE.

2022/12/03 02:00 (retrieved 13 minutes ago)

YMAV 030200Z AUTO 18006KT 130V210 9999 // NCD 28/17 Q1014 RF000/0000

Closest aviation forecast (TAF) to Horsham Airport

Forecast is more than 6 hours old.

Closest forecast is Nouméa Magenta Airport, 1,529.6 nm (2,832.8 km) ENE.

2022/12/02 18:00 (retrieved 8 hours ago)

TAF NWWM 021700Z 0218/0318 29010KT 9999 FEW045 TEMPO 0300/0309 4500 SHRA FEW020CB PROB40 TEMPO 0303/0307 1500 TSRA BKN012 SCT018CB